SWA2428 KCHS-KBNA
Flight info
| Callsign | SWA2428 |
|---|---|
| Flight time | 1h 17m |
| Altitude | 32000 |
| Route | STUNO1 ALD THRSR SWFFT3 |
| Aircraft | B738/M-SDE2E3FGHIRWXY/LB1 |
Departure
| Time | 2026-05-04 00:52 |
|---|---|
| Airport | Charleston International Airport (KCHS) |
Arrival
| Time | 2026-05-04 02:09 |
|---|---|
| Airport | Nashville International Airport (KBNA) |
| Time | Latitude | Longitude | Altitude | Speed | Heading |
|---|---|---|---|---|---|
| 2026-05-04 00:32 | 32.88535 | -80.03832 | 40 ft | 0 kts | 75° |
| 2026-05-04 00:39 | 32.88532 | -80.03846 | 40 ft | 4 kts | 76° |
| 2026-05-04 00:40 | 32.88526 | -80.03877 | 40 ft | 4 kts | 76° |
| 2026-05-04 00:40 | 32.88517 | -80.03908 | 38 ft | 4 kts | 57° |
| 2026-05-04 00:40 | 32.88511 | -80.03918 | 37 ft | 1 kts | 22° |
| 2026-05-04 00:43 | 32.88520 | -80.03917 | 38 ft | 5 kts | 358° |
| 2026-05-04 00:43 | 32.88580 | -80.03964 | 40 ft | 14 kts | 323° |
| 2026-05-04 00:44 | 32.88647 | -80.04027 | 40 ft | 13 kts | 322° |
| 2026-05-04 00:44 | 32.88665 | -80.04045 | 40 ft | 0 kts | 317° |
| 2026-05-04 00:44 | 32.88666 | -80.04046 | 40 ft | 1 kts | 317° |
| 2026-05-04 00:44 | 32.88677 | -80.04077 | 39 ft | 7 kts | 276° |
| 2026-05-04 00:45 | 32.88642 | -80.04155 | 39 ft | 14 kts | 233° |
| 2026-05-04 00:45 | 32.88570 | -80.04265 | 40 ft | 20 kts | 232° |
| 2026-05-04 00:45 | 32.88482 | -80.04416 | 40 ft | 24 kts | 259° |
| 2026-05-04 00:45 | 32.88535 | -80.04611 | 40 ft | 29 kts | 329° |
| 2026-05-04 00:46 | 32.88718 | -80.04705 | 40 ft | 17 kts | 354° |
| 2026-05-04 00:46 | 32.88799 | -80.04671 | 40 ft | 21 kts | 24° |
| 2026-05-04 00:46 | 32.89013 | -80.04557 | 40 ft | 29 kts | 24° |
| 2026-05-04 00:46 | 32.89220 | -80.04465 | 40 ft | 34 kts | 3° |
| 2026-05-04 00:47 | 32.89387 | -80.04461 | 40 ft | 38 kts | 1° |
| 2026-05-04 00:47 | 32.89668 | -80.04454 | 40 ft | 42 kts | 1° |
| 2026-05-04 00:47 | 32.89976 | -80.04447 | 40 ft | 46 kts | 1° |
| 2026-05-04 00:47 | 32.90307 | -80.04440 | 40 ft | 49 kts | 1° |
| 2026-05-04 00:48 | 32.90579 | -80.04565 | 40 ft | 40 kts | 327° |
| 2026-05-04 00:48 | 32.90825 | -80.04753 | 40 ft | 44 kts | 328° |
| 2026-05-04 00:48 | 32.91100 | -80.04962 | 40 ft | 47 kts | 327° |
| 2026-05-04 00:48 | 32.91280 | -80.05123 | 38 ft | 10 kts | 300° |
| 2026-05-04 00:49 | 32.91287 | -80.05139 | 38 ft | 0 kts | 295° |
| 2026-05-04 00:49 | 32.91297 | -80.05171 | 40 ft | 8 kts | 287° |
| 2026-05-04 00:49 | 32.91315 | -80.05264 | 38 ft | 15 kts | 298° |
| 2026-05-04 00:49 | 32.91359 | -80.05335 | 40 ft | 4 kts | 0° |
| 2026-05-04 00:50 | 32.91358 | -80.05280 | 40 ft | 14 kts | 158° |
| 2026-05-04 00:50 | 32.91305 | -80.05210 | 39 ft | 15 kts | 97° |
| 2026-05-04 00:50 | 32.91256 | -80.05089 | 40 ft | 18 kts | 133° |
| 2026-05-04 00:50 | 32.91211 | -80.04965 | 40 ft | 20 kts | 57° |
| 2026-05-04 00:51 | 32.91284 | -80.04827 | 41 ft | 15 kts | 68° |
| 2026-05-04 00:51 | 32.91264 | -80.04780 | 41 ft | 7 kts | 148° |
| 2026-05-04 00:51 | 32.91143 | -80.04689 | 42 ft | 53 kts | 147° |
| 2026-05-04 00:51 | 32.90593 | -80.04272 | 39 ft | 133 kts | 147° |
| 2026-05-04 00:52 | 32.89631 | -80.03538 | 261 ft | 182 kts | 148° |
| 2026-05-04 00:52 | 32.88541 | -80.02675 | 1207 ft | 186 kts | 149° |
| 2026-05-04 00:52 | 32.87459 | -80.01825 | 2290 ft | 188 kts | 150° |
| 2026-05-04 00:52 | 32.86337 | -80.01000 | 3223 ft | 191 kts | 150° |
| 2026-05-04 00:53 | 32.85214 | -80.00148 | 4074 ft | 195 kts | 149° |
| 2026-05-04 00:53 | 32.84017 | -79.99210 | 4548 ft | 219 kts | 148° |
| 2026-05-04 00:53 | 32.82660 | -79.98119 | 4774 ft | 251 kts | 144° |
| 2026-05-04 00:53 | 32.81568 | -79.96394 | 5215 ft | 275 kts | 107° |
| 2026-05-04 00:54 | 32.80942 | -79.94090 | 6061 ft | 283 kts | 121° |
| 2026-05-04 00:54 | 32.79539 | -79.92496 | 6920 ft | 284 kts | 155° |
| 2026-05-04 00:54 | 32.77632 | -79.92037 | 7706 ft | 282 kts | 188° |
| 2026-05-04 00:54 | 32.75829 | -79.92851 | 8451 ft | 280 kts | 221° |
| 2026-05-04 00:55 | 32.74678 | -79.94670 | 9275 ft | 277 kts | 248° |
| 2026-05-04 00:55 | 32.74002 | -79.96816 | 10102 ft | 279 kts | 258° |
| 2026-05-04 00:55 | 32.73800 | -79.99140 | 10526 ft | 295 kts | 275° |
| 2026-05-04 00:55 | 32.74174 | -80.01640 | 10706 ft | 319 kts | 284° |
| 2026-05-04 00:56 | 32.74745 | -80.04248 | 10871 ft | 341 kts | 285° |
| 2026-05-04 00:56 | 32.75408 | -80.07087 | 11091 ft | 361 kts | 285° |
| 2026-05-04 00:56 | 32.76092 | -80.09990 | 11582 ft | 369 kts | 285° |
| 2026-05-04 00:56 | 32.76777 | -80.12944 | 12277 ft | 371 kts | 285° |
| 2026-05-04 00:57 | 32.77453 | -80.15913 | 12998 ft | 373 kts | 284° |
| 2026-05-04 00:57 | 32.78123 | -80.18904 | 13636 ft | 376 kts | 284° |
| 2026-05-04 00:57 | 32.78793 | -80.21923 | 14213 ft | 379 kts | 283° |
| 2026-05-04 00:57 | 32.79462 | -80.24964 | 14791 ft | 382 kts | 283° |
| 2026-05-04 00:58 | 32.80131 | -80.28025 | 15370 ft | 384 kts | 283° |
| 2026-05-04 00:58 | 32.80803 | -80.31106 | 15946 ft | 387 kts | 283° |
| 2026-05-04 00:58 | 32.81480 | -80.34220 | 16499 ft | 390 kts | 283° |
| 2026-05-04 00:58 | 32.82158 | -80.37344 | 17061 ft | 392 kts | 283° |
| 2026-05-04 00:59 | 32.82842 | -80.40500 | 17608 ft | 395 kts | 283° |
| 2026-05-04 00:59 | 32.83528 | -80.43669 | 18153 ft | 398 kts | 283° |
| 2026-05-04 00:59 | 32.84220 | -80.46872 | 18643 ft | 400 kts | 283° |
| 2026-05-04 00:59 | 32.84915 | -80.50085 | 19127 ft | 402 kts | 283° |
| 2026-05-04 01:00 | 32.85611 | -80.53313 | 19620 ft | 404 kts | 282° |
| 2026-05-04 01:00 | 32.86309 | -80.56555 | 20085 ft | 406 kts | 282° |
| 2026-05-04 01:00 | 32.87009 | -80.59809 | 20562 ft | 408 kts | 282° |
| 2026-05-04 01:00 | 32.87712 | -80.63083 | 21026 ft | 410 kts | 282° |
| 2026-05-04 01:01 | 32.88418 | -80.66377 | 21480 ft | 411 kts | 282° |
| 2026-05-04 01:01 | 32.89125 | -80.69678 | 21907 ft | 413 kts | 282° |
| 2026-05-04 01:01 | 32.89837 | -80.73009 | 22319 ft | 416 kts | 282° |
| 2026-05-04 01:01 | 32.90549 | -80.76344 | 22723 ft | 418 kts | 282° |
| 2026-05-04 01:02 | 32.91269 | -80.79716 | 23120 ft | 420 kts | 282° |
| 2026-05-04 01:02 | 32.91986 | -80.83084 | 23488 ft | 422 kts | 281° |
| 2026-05-04 01:02 | 32.92710 | -80.86485 | 23841 ft | 424 kts | 281° |
| 2026-05-04 01:02 | 32.93432 | -80.89887 | 24152 ft | 426 kts | 281° |
| 2026-05-04 01:03 | 32.94159 | -80.93317 | 24469 ft | 427 kts | 281° |
| 2026-05-04 01:03 | 32.94885 | -80.96742 | 24758 ft | 429 kts | 281° |
| 2026-05-04 01:03 | 32.95492 | -80.99615 | 25014 ft | 430 kts | 281° |
| 2026-05-04 01:03 | 32.96224 | -81.03082 | 25305 ft | 432 kts | 281° |
| 2026-05-04 01:04 | 32.96958 | -81.06560 | 25602 ft | 433 kts | 281° |
| 2026-05-04 01:04 | 32.97691 | -81.10044 | 25897 ft | 435 kts | 281° |
| 2026-05-04 01:04 | 32.98416 | -81.13490 | 26186 ft | 437 kts | 281° |
| 2026-05-04 01:04 | 32.99187 | -81.17165 | 26445 ft | 438 kts | 281° |
| 2026-05-04 01:05 | 32.99927 | -81.20691 | 26797 ft | 438 kts | 280° |
| 2026-05-04 01:05 | 33.00663 | -81.24203 | 27222 ft | 436 kts | 280° |
| 2026-05-04 01:05 | 33.01394 | -81.27695 | 27682 ft | 433 kts | 280° |
| 2026-05-04 01:05 | 33.02120 | -81.31170 | 28083 ft | 432 kts | 280° |
| 2026-05-04 01:06 | 33.02844 | -81.34644 | 28473 ft | 431 kts | 280° |
| 2026-05-04 01:06 | 33.03565 | -81.38110 | 28875 ft | 430 kts | 279° |
| 2026-05-04 01:06 | 33.04273 | -81.41518 | 29300 ft | 428 kts | 279° |
| 2026-05-04 01:06 | 33.04988 | -81.44967 | 29726 ft | 427 kts | 279° |
| 2026-05-04 01:07 | 33.05706 | -81.48432 | 30163 ft | 425 kts | 279° |
| 2026-05-04 01:07 | 33.06412 | -81.51843 | 30517 ft | 423 kts | 279° |
| 2026-05-04 01:07 | 33.07115 | -81.55244 | 30876 ft | 422 kts | 279° |
| 2026-05-04 01:07 | 33.07814 | -81.58637 | 31223 ft | 420 kts | 279° |
| 2026-05-04 01:08 | 33.08495 | -81.61938 | 31403 ft | 414 kts | 279° |
| 2026-05-04 01:08 | 33.09881 | -81.68699 | 31579 ft | 422 kts | 279° |
| 2026-05-04 01:08 | 33.10575 | -81.72089 | 31954 ft | 420 kts | 279° |
| 2026-05-04 01:09 | 33.11268 | -81.75471 | 32054 ft | 421 kts | 279° |
| 2026-05-04 01:09 | 33.12647 | -81.82218 | 32076 ft | 417 kts | 279° |
| 2026-05-04 01:10 | 33.14015 | -81.88935 | 32087 ft | 416 kts | 279° |
| 2026-05-04 01:10 | 33.15158 | -81.94565 | 32083 ft | 416 kts | 279° |
| 2026-05-04 01:11 | 33.16511 | -82.01246 | 32085 ft | 417 kts | 279° |
| 2026-05-04 01:11 | 33.17870 | -82.07981 | 32084 ft | 418 kts | 279° |
| 2026-05-04 01:12 | 33.19230 | -82.14733 | 32084 ft | 419 kts | 279° |
| 2026-05-04 01:12 | 33.20589 | -82.21504 | 32079 ft | 420 kts | 279° |
| 2026-05-04 01:13 | 33.21948 | -82.28293 | 32080 ft | 421 kts | 279° |
| 2026-05-04 01:13 | 33.23315 | -82.35144 | 32089 ft | 421 kts | 279° |
| 2026-05-04 01:14 | 33.24670 | -82.41954 | 32099 ft | 422 kts | 279° |
| 2026-05-04 01:14 | 33.26024 | -82.48784 | 32105 ft | 423 kts | 279° |
| 2026-05-04 01:15 | 33.27386 | -82.55673 | 32108 ft | 423 kts | 279° |
| 2026-05-04 01:15 | 33.28727 | -82.62474 | 32110 ft | 424 kts | 280° |
| 2026-05-04 01:16 | 33.30076 | -82.69338 | 32108 ft | 424 kts | 280° |
| 2026-05-04 01:16 | 33.31421 | -82.76206 | 32101 ft | 425 kts | 280° |
| 2026-05-04 01:17 | 33.32764 | -82.83081 | 32092 ft | 425 kts | 280° |
| 2026-05-04 01:17 | 33.34106 | -82.89980 | 32076 ft | 426 kts | 280° |
| 2026-05-04 01:18 | 33.35454 | -82.96927 | 32095 ft | 426 kts | 280° |
| 2026-05-04 01:18 | 33.36782 | -83.03789 | 32103 ft | 427 kts | 281° |
| 2026-05-04 01:19 | 33.38128 | -83.10769 | 32104 ft | 428 kts | 281° |
| 2026-05-04 01:19 | 33.39454 | -83.17670 | 32099 ft | 429 kts | 281° |
| 2026-05-04 01:20 | 33.40788 | -83.24635 | 32103 ft | 430 kts | 281° |
| 2026-05-04 01:20 | 33.42121 | -83.31615 | 32103 ft | 430 kts | 281° |
| 2026-05-04 01:21 | 33.43462 | -83.38656 | 32102 ft | 431 kts | 281° |
| 2026-05-04 01:21 | 33.44792 | -83.45669 | 32095 ft | 432 kts | 282° |
| 2026-05-04 01:22 | 33.46112 | -83.52649 | 32091 ft | 433 kts | 282° |
| 2026-05-04 01:22 | 33.47450 | -83.59746 | 32101 ft | 434 kts | 282° |
| 2026-05-04 01:23 | 33.48777 | -83.66811 | 32099 ft | 435 kts | 282° |
| 2026-05-04 01:23 | 33.50103 | -83.73890 | 32098 ft | 436 kts | 282° |
| 2026-05-04 01:24 | 33.51415 | -83.80920 | 32100 ft | 437 kts | 282° |
| 2026-05-04 01:24 | 33.52740 | -83.88045 | 32104 ft | 437 kts | 283° |
| 2026-05-04 01:25 | 33.54056 | -83.95145 | 32100 ft | 438 kts | 283° |
| 2026-05-04 01:25 | 33.55377 | -84.02294 | 32104 ft | 438 kts | 283° |
| 2026-05-04 01:26 | 33.56709 | -84.09531 | 32098 ft | 438 kts | 283° |
| 2026-05-04 01:26 | 33.57999 | -84.16563 | 32116 ft | 438 kts | 283° |
| 2026-05-04 01:27 | 33.59303 | -84.23694 | 32116 ft | 438 kts | 283° |
| 2026-05-04 01:27 | 33.60602 | -84.30822 | 32121 ft | 437 kts | 283° |
| 2026-05-04 01:28 | 33.61904 | -84.37940 | 32123 ft | 436 kts | 285° |
| 2026-05-04 01:28 | 33.63019 | -84.41304 | 32125 ft | 434 kts | 300° |
| 2026-05-04 01:28 | 33.64763 | -84.44255 | 32114 ft | 434 kts | 311° |
| 2026-05-04 01:28 | 33.66976 | -84.46708 | 32115 ft | 436 kts | 324° |
| 2026-05-04 01:29 | 33.69533 | -84.48659 | 32135 ft | 435 kts | 327° |
| 2026-05-04 01:29 | 33.74708 | -84.52434 | 32112 ft | 435 kts | 327° |
| 2026-05-04 01:30 | 33.79876 | -84.56227 | 32112 ft | 435 kts | 326° |
| 2026-05-04 01:30 | 33.85016 | -84.60055 | 32107 ft | 434 kts | 326° |
| 2026-05-04 01:31 | 33.90129 | -84.63893 | 32108 ft | 433 kts | 326° |
| 2026-05-04 01:31 | 33.95240 | -84.67740 | 32133 ft | 432 kts | 326° |
| 2026-05-04 01:32 | 34.00333 | -84.71579 | 32133 ft | 432 kts | 326° |
| 2026-05-04 01:32 | 34.05458 | -84.75447 | 32127 ft | 431 kts | 326° |
| 2026-05-04 01:33 | 34.10503 | -84.79259 | 32126 ft | 431 kts | 326° |
| 2026-05-04 01:33 | 34.15621 | -84.83133 | 32124 ft | 430 kts | 326° |
| 2026-05-04 01:34 | 34.20710 | -84.86990 | 32131 ft | 430 kts | 326° |
| 2026-05-04 01:34 | 34.25775 | -84.90834 | 32117 ft | 429 kts | 325° |
| 2026-05-04 01:35 | 34.30831 | -84.94676 | 32112 ft | 429 kts | 325° |
| 2026-05-04 01:35 | 34.35879 | -84.98519 | 32114 ft | 429 kts | 325° |
| 2026-05-04 01:36 | 34.40933 | -85.02371 | 32120 ft | 429 kts | 325° |
| 2026-05-04 01:36 | 34.45976 | -85.06221 | 32117 ft | 428 kts | 325° |
| 2026-05-04 01:37 | 34.51019 | -85.10076 | 32113 ft | 428 kts | 325° |
| 2026-05-04 01:37 | 34.56051 | -85.13927 | 32113 ft | 427 kts | 325° |
| 2026-05-04 01:38 | 34.61072 | -85.17777 | 32110 ft | 427 kts | 325° |
| 2026-05-04 01:38 | 34.66095 | -85.21634 | 32105 ft | 426 kts | 325° |
| 2026-05-04 01:39 | 34.71104 | -85.25485 | 32103 ft | 426 kts | 325° |
| 2026-05-04 01:39 | 34.76108 | -85.29338 | 32105 ft | 425 kts | 324° |
| 2026-05-04 01:40 | 34.81103 | -85.33190 | 32105 ft | 425 kts | 324° |
| 2026-05-04 01:40 | 34.86088 | -85.37040 | 32109 ft | 424 kts | 324° |
| 2026-05-04 01:41 | 34.91062 | -85.40886 | 32106 ft | 423 kts | 324° |
| 2026-05-04 01:41 | 34.96064 | -85.44760 | 32103 ft | 423 kts | 324° |
| 2026-05-04 01:41 | 34.98526 | -85.46670 | 31813 ft | 427 kts | 324° |
| 2026-05-04 01:42 | 35.01046 | -85.48627 | 31164 ft | 427 kts | 324° |
| 2026-05-04 01:42 | 35.03571 | -85.50587 | 30441 ft | 426 kts | 324° |
| 2026-05-04 01:42 | 35.06065 | -85.52525 | 29577 ft | 427 kts | 325° |
| 2026-05-04 01:42 | 35.08569 | -85.54472 | 28679 ft | 427 kts | 325° |
| 2026-05-04 01:43 | 35.11074 | -85.56421 | 27804 ft | 427 kts | 325° |
| 2026-05-04 01:43 | 35.12765 | -85.57738 | 27334 ft | 425 kts | 325° |
| 2026-05-04 01:43 | 35.15241 | -85.59666 | 26723 ft | 420 kts | 325° |
| 2026-05-04 01:43 | 35.17695 | -85.61578 | 26094 ft | 416 kts | 325° |
| 2026-05-04 01:44 | 35.20118 | -85.63469 | 25498 ft | 411 kts | 325° |
| 2026-05-04 01:44 | 35.22520 | -85.65344 | 24904 ft | 408 kts | 325° |
| 2026-05-04 01:44 | 35.24903 | -85.67206 | 24295 ft | 405 kts | 325° |
| 2026-05-04 01:44 | 35.27271 | -85.69059 | 23682 ft | 403 kts | 325° |
| 2026-05-04 01:45 | 35.29657 | -85.70927 | 22978 ft | 400 kts | 325° |
| 2026-05-04 01:45 | 35.31995 | -85.72757 | 22349 ft | 396 kts | 325° |
| 2026-05-04 01:45 | 35.36592 | -85.76362 | 21153 ft | 389 kts | 325° |
| 2026-05-04 01:46 | 35.38860 | -85.78142 | 20584 ft | 385 kts | 326° |
| 2026-05-04 01:46 | 35.41106 | -85.79906 | 19999 ft | 382 kts | 326° |
| 2026-05-04 01:46 | 35.43360 | -85.81678 | 19420 ft | 379 kts | 326° |
| 2026-05-04 01:46 | 35.45549 | -85.83400 | 18863 ft | 377 kts | 326° |
| 2026-05-04 01:47 | 35.47751 | -85.85133 | 18255 ft | 376 kts | 326° |
| 2026-05-04 01:47 | 35.49953 | -85.86867 | 17619 ft | 373 kts | 326° |
| 2026-05-04 01:47 | 35.52121 | -85.88574 | 17027 ft | 370 kts | 326° |
| 2026-05-04 01:47 | 35.54255 | -85.90275 | 16458 ft | 367 kts | 324° |
| 2026-05-04 01:48 | 35.56231 | -85.92261 | 15883 ft | 363 kts | 315° |
| 2026-05-04 01:48 | 35.57942 | -85.94532 | 15349 ft | 360 kts | 312° |
| 2026-05-04 01:48 | 35.59633 | -85.96842 | 14791 ft | 358 kts | 312° |
| 2026-05-04 01:48 | 35.61297 | -85.99106 | 14251 ft | 356 kts | 313° |
| 2026-05-04 01:49 | 35.62959 | -86.01347 | 13677 ft | 354 kts | 313° |
| 2026-05-04 01:49 | 35.64618 | -86.03574 | 13051 ft | 353 kts | 313° |
| 2026-05-04 01:49 | 35.66265 | -86.05782 | 12477 ft | 351 kts | 313° |
| 2026-05-04 01:49 | 35.67922 | -86.08003 | 11821 ft | 351 kts | 313° |
| 2026-05-04 01:50 | 35.69559 | -86.10198 | 11533 ft | 341 kts | 313° |
| 2026-05-04 01:50 | 35.71134 | -86.12312 | 11348 ft | 330 kts | 313° |
| 2026-05-04 01:50 | 35.72651 | -86.14345 | 11252 ft | 316 kts | 313° |
| 2026-05-04 01:50 | 35.74115 | -86.16306 | 11119 ft | 305 kts | 313° |
| 2026-05-04 01:51 | 35.75526 | -86.18196 | 10975 ft | 295 kts | 313° |
| 2026-05-04 01:51 | 35.76889 | -86.20024 | 10858 ft | 285 kts | 313° |
| 2026-05-04 01:51 | 35.78206 | -86.21791 | 10737 ft | 275 kts | 313° |
| 2026-05-04 01:51 | 35.79480 | -86.23501 | 10596 ft | 268 kts | 313° |
| 2026-05-04 01:52 | 35.80766 | -86.25201 | 10337 ft | 265 kts | 313° |
| 2026-05-04 01:52 | 35.82013 | -86.26834 | 10167 ft | 258 kts | 313° |
| 2026-05-04 01:52 | 35.83374 | -86.28615 | 10023 ft | 250 kts | 313° |
| 2026-05-04 01:52 | 35.84542 | -86.30145 | 9762 ft | 248 kts | 313° |
| 2026-05-04 01:53 | 35.85736 | -86.31711 | 9495 ft | 246 kts | 313° |
| 2026-05-04 01:53 | 35.86907 | -86.33247 | 9223 ft | 245 kts | 313° |
| 2026-05-04 01:53 | 35.88065 | -86.34769 | 8960 ft | 243 kts | 313° |
| 2026-05-04 01:53 | 35.89224 | -86.36291 | 8694 ft | 242 kts | 313° |
| 2026-05-04 01:54 | 35.90373 | -86.37802 | 8430 ft | 241 kts | 312° |
| 2026-05-04 01:54 | 35.91515 | -86.39306 | 8170 ft | 239 kts | 312° |
| 2026-05-04 01:54 | 35.92649 | -86.40799 | 7916 ft | 239 kts | 312° |
| 2026-05-04 01:54 | 35.93780 | -86.42289 | 7654 ft | 238 kts | 312° |
| 2026-05-04 01:55 | 35.94887 | -86.43747 | 7423 ft | 226 kts | 311° |
| 2026-05-04 01:55 | 35.95946 | -86.45142 | 7179 ft | 215 kts | 311° |
| 2026-05-04 01:55 | 35.96962 | -86.46480 | 6932 ft | 205 kts | 311° |
| 2026-05-04 01:55 | 35.97920 | -86.47741 | 6709 ft | 199 kts | 311° |
| 2026-05-04 01:56 | 35.98868 | -86.48972 | 6506 ft | 197 kts | 311° |
| 2026-05-04 01:56 | 35.99800 | -86.50182 | 6381 ft | 192 kts | 311° |
| 2026-05-04 01:56 | 36.00429 | -86.50999 | 6316 ft | 196 kts | 311° |
| 2026-05-04 01:56 | 36.01364 | -86.52214 | 6237 ft | 200 kts | 311° |
| 2026-05-04 01:57 | 36.02333 | -86.53473 | 6121 ft | 200 kts | 310° |
| 2026-05-04 01:57 | 36.03263 | -86.54680 | 6034 ft | 199 kts | 310° |
| 2026-05-04 01:57 | 36.04229 | -86.55950 | 5858 ft | 204 kts | 310° |
| 2026-05-04 01:57 | 36.05255 | -86.57175 | 5646 ft | 205 kts | 324° |
| 2026-05-04 01:58 | 36.06650 | -86.57646 | 5469 ft | 208 kts | 358° |
| 2026-05-04 01:58 | 36.08052 | -86.57300 | 5310 ft | 210 kts | 12° |
| 2026-05-04 01:58 | 36.09449 | -86.56748 | 5114 ft | 213 kts | 13° |
| 2026-05-04 01:58 | 36.10871 | -86.56263 | 4854 ft | 208 kts | 356° |
| 2026-05-04 01:59 | 36.12233 | -86.56616 | 4643 ft | 192 kts | 338° |
| 2026-05-04 01:59 | 36.13510 | -86.57069 | 4389 ft | 189 kts | 339° |
| 2026-05-04 01:59 | 36.14767 | -86.57498 | 4154 ft | 186 kts | 339° |
| 2026-05-04 01:59 | 36.16060 | -86.57596 | 3899 ft | 193 kts | 13° |
| 2026-05-04 02:00 | 36.17296 | -86.56890 | 3769 ft | 195 kts | 25° |
| 2026-05-04 02:00 | 36.18507 | -86.56085 | 3603 ft | 198 kts | 26° |
| 2026-05-04 02:00 | 36.19716 | -86.55286 | 3550 ft | 196 kts | 25° |
| 2026-05-04 02:00 | 36.20918 | -86.54490 | 3560 ft | 197 kts | 26° |
| 2026-05-04 02:01 | 36.22136 | -86.53683 | 3572 ft | 200 kts | 25° |
| 2026-05-04 02:01 | 36.23361 | -86.52870 | 3562 ft | 199 kts | 26° |
| 2026-05-04 02:01 | 36.24582 | -86.52061 | 3577 ft | 199 kts | 25° |
| 2026-05-04 02:01 | 36.25797 | -86.51251 | 3594 ft | 197 kts | 26° |
| 2026-05-04 02:02 | 36.26997 | -86.50453 | 3435 ft | 194 kts | 26° |
| 2026-05-04 02:02 | 36.28223 | -86.49643 | 3085 ft | 197 kts | 26° |
| 2026-05-04 02:02 | 36.29485 | -86.49163 | 3025 ft | 190 kts | 353° |
| 2026-05-04 02:02 | 36.30677 | -86.49706 | 3011 ft | 180 kts | 312° |
| 2026-05-04 02:03 | 36.31297 | -86.50976 | 3020 ft | 171 kts | 285° |
| 2026-05-04 02:03 | 36.31718 | -86.52370 | 3012 ft | 172 kts | 285° |
| 2026-05-04 02:03 | 36.32138 | -86.53752 | 3005 ft | 171 kts | 285° |
| 2026-05-04 02:03 | 36.32225 | -86.55152 | 3002 ft | 161 kts | 248° |
| 2026-05-04 02:04 | 36.31574 | -86.56240 | 3020 ft | 160 kts | 224° |
| 2026-05-04 02:04 | 36.30766 | -86.57252 | 3018 ft | 164 kts | 225° |
| 2026-05-04 02:04 | 36.29850 | -86.58083 | 2967 ft | 165 kts | 202° |
| 2026-05-04 02:04 | 36.28786 | -86.58572 | 2869 ft | 165 kts | 204° |
| 2026-05-04 02:05 | 36.27727 | -86.59118 | 2744 ft | 163 kts | 205° |
| 2026-05-04 02:05 | 36.26683 | -86.59673 | 2617 ft | 163 kts | 205° |
| 2026-05-04 02:05 | 36.25648 | -86.60231 | 2517 ft | 162 kts | 205° |
| 2026-05-04 02:05 | 36.24725 | -86.60733 | 2437 ft | 161 kts | 206° |
| 2026-05-04 02:06 | 36.23724 | -86.61280 | 2329 ft | 154 kts | 206° |
| 2026-05-04 02:06 | 36.22783 | -86.61796 | 2285 ft | 142 kts | 206° |
| 2026-05-04 02:06 | 36.21906 | -86.62277 | 2148 ft | 134 kts | 206° |
| 2026-05-04 02:06 | 36.21039 | -86.62754 | 2037 ft | 134 kts | 205° |
| 2026-05-04 02:07 | 36.20157 | -86.63207 | 1978 ft | 140 kts | 202° |
| 2026-05-04 02:07 | 36.19190 | -86.63524 | 1749 ft | 144 kts | 199° |
| 2026-05-04 02:07 | 36.18268 | -86.63905 | 1603 ft | 137 kts | 201° |
| 2026-05-04 02:07 | 36.17343 | -86.64295 | 1395 ft | 144 kts | 200° |
| 2026-05-04 02:08 | 36.16369 | -86.64704 | 1185 ft | 147 kts | 200° |
| 2026-05-04 02:08 | 36.15399 | -86.65099 | 1001 ft | 147 kts | 198° |
| 2026-05-04 02:08 | 36.14751 | -86.65359 | 872 ft | 147 kts | 199° |
| 2026-05-04 02:08 | 36.13626 | -86.65817 | 672 ft | 145 kts | 199° |
| 2026-05-04 02:09 | 36.12701 | -86.66193 | 571 ft | 139 kts | 198° |
| 2026-05-04 02:09 | 36.11863 | -86.66533 | 579 ft | 107 kts | 199° |
| 2026-05-04 02:09 | 36.11484 | -86.66683 | 589 ft | 39 kts | 198° |
| 2026-05-04 02:09 | 36.11374 | -86.66765 | 590 ft | 14 kts | 273° |
| 2026-05-04 02:10 | 36.11386 | -86.66806 | 591 ft | 1 kts | 293° |
| 2026-05-04 02:10 | 36.11394 | -86.66830 | 591 ft | 5 kts | 293° |
| 2026-05-04 02:10 | 36.11401 | -86.66848 | 591 ft | 2 kts | 293° |
| 2026-05-04 02:10 | 36.11408 | -86.66868 | 591 ft | 0 kts | 295° |
| 2026-05-04 02:11 | 36.11417 | -86.66873 | 591 ft | 3 kts | 347° |
| 2026-05-04 02:11 | 36.11447 | -86.66853 | 591 ft | 8 kts | 31° |
| 2026-05-04 02:11 | 36.11521 | -86.66811 | 589 ft | 16 kts | 19° |
| 2026-05-04 02:12 | 36.11649 | -86.66760 | 586 ft | 23 kts | 18° |
| 2026-05-04 02:12 | 36.11820 | -86.66691 | 581 ft | 29 kts | 18° |
| 2026-05-04 02:12 | 36.12035 | -86.66605 | 575 ft | 35 kts | 18° |
| 2026-05-04 02:12 | 36.12259 | -86.66535 | 570 ft | 17 kts | 339° |
| 2026-05-04 02:13 | 36.12316 | -86.66679 | 570 ft | 20 kts | 289° |
| 2026-05-04 02:13 | 36.12372 | -86.66850 | 571 ft | 24 kts | 306° |
| 2026-05-04 02:13 | 36.12491 | -86.66947 | 574 ft | 21 kts | 15° |
| 2026-05-04 02:13 | 36.12567 | -86.66898 | 571 ft | 11 kts | 29° |
| 2026-05-04 02:14 | 36.12634 | -86.66852 | 574 ft | 10 kts | 28° |
| 2026-05-04 02:14 | 36.12682 | -86.66837 | 569 ft | 4 kts | 333° |
| 2026-05-04 02:14 | 36.12692 | -86.66871 | 569 ft | 5 kts | 271° |
| 2026-05-04 02:14 | 36.12691 | -86.66928 | 568 ft | 6 kts | 282° |
| 2026-05-04 02:15 | 36.12708 | -86.66950 | 571 ft | 2 kts | 338° |
| 2026-05-04 02:15 | 36.12724 | -86.66949 | 577 ft | 3 kts | 12° |
| 2026-05-04 02:15 | 36.12744 | -86.66936 | 568 ft | 3 kts | 28° |
| 2026-05-04 02:15 | 36.27332 | -86.59326 | 2699 ft | 163 kts | 205° |
| 2026-05-04 02:16 | 36.14449 | -86.65480 | 814 ft | 146 kts | 198° |
| 2026-05-04 02:16 | 36.13465 | -86.65884 | 645 ft | 145 kts | 199° |
| 2026-05-04 02:16 | 36.12507 | -86.66273 | 569 ft | 136 kts | 199° |
| 2026-05-04 02:16 | 36.11747 | -86.66579 | 583 ft | 85 kts | 198° |
| 2026-05-04 02:17 | 36.14079 | -86.65627 | 739 ft | 146 kts | 199° |
| 2026-05-04 02:17 | 36.13462 | -86.65885 | 643 ft | 145 kts | 199° |
| 2026-05-04 02:17 | 36.12220 | -86.66387 | 571 ft | 126 kts | 202° |